Time;durP1;ratioP1;P1;durP2;ratioP2;P2;SDS_P1;SDS_P2;PMS_P1;PMS_P2;Temp;Humidity;BMP_temperature;BMP_pressure;BME280_temperature;BME280_humidity;BME280_pressure;Samples;Min_cycle;Max_cycle;Signal;HPM_P1;HPM_P2
2021/11/13 00:02:17;;;;;;;28.73;11.65;;;;;;;2.54;100.00;95462.97;5031565;28;20049;-76
2021/11/13 00:04:43;;;;;;;32.78;12.85;;;;;;;2.48;100.00;95464.63;5024569;28;20662;-77
2021/11/13 00:07:08;;;;;;;29.58;12.00;;;;;;;2.53;100.00;95461.38;5029334;28;20543;-76
2021/11/13 00:09:34;;;;;;;42.17;13.18;;;;;;;2.55;100.00;95465.34;5032459;28;20091;-77
2021/11/13 00:11:59;;;;;;;23.27;11.80;;;;;;;2.52;100.00;95455.41;5032104;28;20116;-77
2021/11/13 00:14:27;;;;;;;30.48;11.63;;;;;;;2.37;100.00;95457.56;5031597;28;20072;-77
2021/11/13 00:16:55;;;;;;;30.48;13.13;;;;;;;2.51;100.00;95453.78;5032131;28;20514;-77
2021/11/13 00:19:20;;;;;;;26.67;12.27;;;;;;;2.47;100.00;95463.06;5030005;28;20681;-77
2021/11/13 00:21:46;;;;;;;37.42;12.85;;;;;;;2.42;100.00;95460.31;5030876;28;20045;-77
2021/11/13 00:24:12;;;;;;;27.02;12.05;;;;;;;2.52;100.00;95455.41;5032389;28;20507;-77
2021/11/13 00:26:38;;;;;;;26.23;12.38;;;;;;;2.50;100.00;95457.44;5031330;28;20049;-78
2021/11/13 00:29:05;;;;;;;31.92;12.55;;;;;;;2.52;100.00;95465.78;5031944;28;20526;-78
2021/11/13 00:31:31;;;;;;;27.73;12.65;;;;;;;2.44;100.00;95453.09;5030685;28;20045;-77
2021/11/13 00:33:58;;;;;;;47.50;12.95;;;;;;;2.48;100.00;95459.44;5031147;28;20038;-77
2021/11/13 00:36:24;;;;;;;26.08;12.27;;;;;;;2.48;100.00;95449.03;5031823;28;20045;-77
2021/11/13 00:38:50;;;;;;;49.50;12.50;;;;;;;2.56;100.00;95448.75;5030880;28;20072;-77
2021/11/13 00:41:15;;;;;;;42.17;13.20;;;;;;;2.29;100.00;95458.69;5031660;28;20057;-77
2021/11/13 00:43:41;;;;;;;30.65;13.75;;;;;;;2.24;100.00;95459.34;5047045;28;20083;-78
2021/11/13 00:46:07;;;;;;;52.72;14.25;;;;;;;2.23;100.00;95462.94;5043085;28;20521;-77
2021/11/13 00:48:32;;;;;;;31.13;13.52;;;;;;;2.35;100.00;95451.81;5012122;28;20041;-77
2021/11/13 00:50:58;;;;;;;31.52;14.55;;;;;;;2.42;100.00;95449.94;5023570;28;20049;-77
2021/11/13 00:53:24;;;;;;;36.92;13.07;;;;;;;2.55;100.00;95449.75;5031473;28;20423;-77
2021/11/13 00:55:49;;;;;;;31.80;12.50;;;;;;;2.58;100.00;95453.72;5030853;28;20112;-77
2021/11/13 00:58:15;;;;;;;25.38;12.07;;;;;;;2.58;100.00;95444.13;5029379;28;20080;-76
2021/11/13 01:00:41;;;;;;;37.17;13.68;;;;;;;2.50;100.00;95447.03;5031555;28;20045;-75
2021/11/13 01:03:08;;;;;;;36.10;13.02;;;;;;;2.43;100.00;95446.34;5030375;28;20045;-76
2021/11/13 01:05:34;;;;;;;57.50;12.75;;;;;;;2.51;100.00;95446.00;5028436;28;20045;-76
2021/11/13 01:08:00;;;;;;;61.47;13.27;;;;;;;2.51;100.00;95443.41;5008994;28;20034;-76
2021/11/13 01:10:25;;;;;;;41.20;12.75;;;;;;;2.48;100.00;95432.69;5013841;28;20454;-76
2021/11/13 01:12:51;;;;;;;52.35;12.98;;;;;;;2.46;100.00;95435.50;5012895;28;20495;-75
2021/11/13 01:15:19;;;;;;;33.22;12.50;;;;;;;2.40;100.00;95438.97;5029010;28;20048;-76
2021/11/13 01:17:45;;;;;;;39.42;12.68;;;;;;;2.42;100.00;95432.53;5028481;28;20037;-76
2021/11/13 01:20:13;;;;;;;27.92;11.52;;;;;;;2.35;100.00;95433.63;5028992;28;20048;-76
2021/11/13 01:22:39;;;;;;;38.65;11.50;;;;;;;2.33;100.00;95439.06;5029524;28;20045;-76
2021/11/13 01:25:06;;;;;;;47.33;11.85;;;;;;;2.19;100.00;95430.63;5028016;28;20179;-75
2021/11/13 01:27:32;;;;;;;43.83;13.07;;;;;;;2.20;100.00;95427.03;5029410;28;20049;-76
2021/11/13 01:29:58;;;;;;;27.80;13.07;;;;;;;2.18;100.00;95429.03;5031216;28;20048;-77
2021/11/13 01:32:24;;;;;;;31.83;11.70;;;;;;;2.09;100.00;95430.34;5029675;28;20041;-76
2021/11/13 01:34:50;;;;;;;31.63;12.20;;;;;;;2.08;100.00;95428.75;5045460;28;20411;-76
2021/11/13 01:37:16;;;;;;;34.35;12.20;;;;;;;2.17;100.00;95422.28;5022325;28;20585;-76
2021/11/13 01:39:42;;;;;;;49.88;12.15;;;;;;;2.21;100.00;95418.22;5027378;28;20116;-76
2021/11/13 01:42:08;;;;;;;46.00;11.38;;;;;;;2.28;100.00;95423.31;5029971;28;20053;-76
2021/11/13 01:44:34;;;;;;;26.85;10.90;;;;;;;2.17;100.00;95411.88;5027454;28;20045;-76
2021/11/13 01:47:00;;;;;;;82.68;11.43;;;;;;;2.09;100.00;95401.78;5017724;28;20046;-77
2021/11/13 01:49:26;;;;;;;63.25;11.70;;;;;;;2.13;100.00;95400.34;5037252;28;20095;-76
2021/11/13 01:51:52;;;;;;;50.88;11.40;;;;;;;2.04;100.00;95392.06;5027663;28;20045;-76
2021/11/13 01:54:19;;;;;;;30.52;11.35;;;;;;;2.09;100.00;95399.19;5030942;28;20059;-77
2021/11/13 01:56:47;;;;;;;24.90;11.07;;;;;;;2.04;100.00;95401.63;5030181;28;20091;-76
2021/11/13 01:59:12;;;;;;;31.38;11.38;;;;;;;2.11;100.00;95399.75;5015930;28;20068;-76
2021/11/13 02:01:38;;;;;;;29.15;10.38;;;;;;;2.11;100.00;95404.16;5029071;28;20080;-77
2021/11/13 02:04:05;;;;;;;35.70;10.30;;;;;;;2.11;100.00;95402.34;5030268;28;20056;-77
2021/11/13 02:06:31;;;;;;;56.00;11.38;;;;;;;2.02;100.00;95393.28;5028548;28;20041;-76
2021/11/13 02:08:57;;;;;;;23.33;9.90;;;;;;;1.88;100.00;95396.03;5029071;28;20114;-76
2021/11/13 02:11:26;;;;;;;83.05;11.52;;;;;;;1.67;100.00;95396.47;5029498;28;20049;-77
2021/11/13 02:13:54;;;;;;;26.90;11.07;;;;;;;1.74;100.00;95402.38;5031184;28;20068;-77
2021/11/13 02:16:19;;;;;;;65.47;11.70;;;;;;;1.64;100.00;95394.28;5029055;28;20105;-77
2021/11/13 02:18:45;;;;;;;40.72;11.05;;;;;;;1.69;100.00;95394.44;5030511;28;20052;-76
2021/11/13 02:21:12;;;;;;;32.20;10.45;;;;;;;1.66;100.00;95400.06;5029043;28;20041;-76
2021/11/13 02:23:40;;;;;;;27.80;9.75;;;;;;;1.80;100.00;95401.50;5028872;28;20760;-76
2021/11/13 02:26:06;;;;;;;20.98;9.32;;;;;;;1.74;100.00;95397.19;5029225;28;20045;-76
2021/11/13 02:28:35;;;;;;;30.48;9.65;;;;;;;1.82;100.00;95399.47;5023436;28;20076;-76
2021/11/13 02:31:03;;;;;;;46.63;10.18;;;;;;;1.74;100.00;95392.00;5032191;28;20099;-76
2021/11/13 02:33:30;;;;;;;27.48;10.35;;;;;;;1.65;100.00;95398.47;5008476;28;20045;-75
2021/11/13 02:35:56;;;;;;;188.77;14.05;;;;;;;1.51;100.00;95401.22;5020081;28;20053;-77
2021/11/13 02:38:25;;;;;;;98.30;12.50;;;;;;;1.52;100.00;95400.22;5012829;28;20049;-77
2021/11/13 02:40:56;;;;;;;53.90;12.15;;;;;;;1.50;100.00;95404.81;5030360;28;20060;-76
2021/11/13 02:43:24;;;;;;;42.35;11.88;;;;;;;1.72;100.00;95405.19;5027877;28;20089;-77
2021/11/13 02:45:53;;;;;;;34.15;11.05;;;;;;;1.85;100.00;95404.28;5023188;28;20140;-76
2021/11/13 02:48:21;;;;;;;38.45;11.35;;;;;;;1.69;100.00;95408.19;5028008;28;20053;-77
2021/11/13 02:50:46;;;;;;;34.95;11.00;;;;;;;1.79;100.00;95404.31;5044915;28;20060;-77
2021/11/13 02:53:16;;;;;;;49.00;12.15;;;;;;;1.69;100.00;95404.81;5027423;28;20538;-77
2021/11/13 02:55:42;;;;;;;151.88;14.40;;;;;;;1.66;100.00;95405.25;5030663;28;20414;-77
2021/11/13 02:58:08;;;;;;;152.07;14.00;;;;;;;1.62;100.00;95406.69;5028897;28;20045;-77
2021/11/13 03:00:34;;;;;;;159.00;14.50;;;;;;;1.49;100.00;95400.63;5029824;28;20606;-76
2021/11/13 03:03:00;;;;;;;166.02;14.95;;;;;;;1.50;100.00;95396.25;5028296;28;20041;-77
2021/11/13 03:05:36;;;;;;;194.52;17.00;;;;;;;1.50;100.00;95397.03;5029245;28;20115;-76
2021/11/13 03:08:04;;;;;;;65.97;12.85;;;;;;;1.63;100.00;95395.31;5029814;28;20121;-77
2021/11/13 03:10:35;;;;;;;65.10;12.32;;;;;;;1.69;100.00;95394.44;5028180;28;20080;-76
2021/11/13 03:13:01;;;;;;;147.90;15.07;;;;;;;1.64;100.00;95407.25;5028877;28;20042;-77
2021/11/13 03:15:27;;;;;;;101.45;14.63;;;;;;;1.60;100.00;95412.09;5029670;28;20038;-76
2021/11/13 03:17:55;;;;;;;108.43;16.95;;;;;;;1.62;100.00;95414.47;5030314;28;20048;-76
2021/11/13 03:20:26;;;;;;;43.42;14.07;;;;;;;1.72;100.00;95414.75;5029164;28;20045;-76
2021/11/13 03:22:52;;;;;;;136.20;16.70;;;;;;;1.69;100.00;95412.59;5024727;28;20219;-77
2021/11/13 03:25:24;;;;;;;161.13;16.58;;;;;;;1.68;100.00;95403.22;5029920;28;20041;-76
2021/11/13 03:27:55;;;;;;;47.00;14.90;;;;;;;1.78;100.00;95403.53;5029099;28;20103;-76
2021/11/13 03:30:22;;;;;;;110.25;15.95;;;;;;;1.77;100.00;95401.94;5030013;28;20450;-76
2021/11/13 03:32:49;;;;;;;83.28;14.80;;;;;;;1.89;100.00;95405.41;5028495;28;20534;-76
2021/11/13 03:35:18;;;;;;;125.35;15.60;;;;;;;1.81;100.00;95402.28;5026984;28;20084;-76
2021/11/13 03:37:44;;;;;;;143.77;16.73;;;;;;;1.82;100.00;95404.69;5028346;28;20049;-76
2021/11/13 03:40:11;;;;;;;33.72;12.98;;;;;;;1.93;100.00;95404.97;5029120;28;20041;-76
2021/11/13 03:42:39;;;;;;;44.30;13.20;;;;;;;1.97;100.00;95400.91;5028804;28;20096;-76
2021/11/13 03:45:07;;;;;;;55.22;13.18;;;;;;;1.98;100.00;95402.50;5025717;28;20781;-75
2021/11/13 03:47:34;;;;;;;88.25;13.73;;;;;;;1.89;100.00;95404.59;5014551;28;20130;-75
2021/11/13 03:49:59;;;;;;;84.38;14.07;;;;;;;1.88;100.00;95408.22;5025611;28;20049;-77
2021/11/13 03:52:25;;;;;;;53.33;12.77;;;;;;;1.98;100.00;95402.50;5028338;28;20053;-77
2021/11/13 03:54:51;;;;;;;119.90;14.57;;;;;;;1.78;100.00;95406.13;5030238;28;20121;-76
2021/11/13 03:57:16;;;;;;;68.93;12.93;;;;;;;1.98;100.00;95407.72;5031545;28;20045;-76
2021/11/13 03:59:42;;;;;;;41.25;12.35;;;;;;;2.09;100.00;95409.56;5032681;28;20045;-77
2021/11/13 04:02:10;;;;;;;48.13;11.85;;;;;;;2.14;100.00;95412.31;5032111;28;20156;-77
2021/11/13 04:04:40;;;;;;;41.90;11.20;;;;;;;2.19;100.00;95409.84;5031960;28;20047;-76
2021/11/13 04:07:06;;;;;;;42.33;10.98;;;;;;;2.30;100.00;95420.50;5031306;28;20115;-76
2021/11/13 04:09:33;;;;;;;81.85;11.35;;;;;;;2.25;100.00;95419.34;5030174;28;20049;-76
2021/11/13 04:12:04;;;;;;;64.20;10.63;;;;;;;2.19;100.00;95420.22;5016698;28;20038;-76
2021/11/13 04:14:31;;;;;;;45.15;10.45;;;;;;;2.18;100.00;95418.63;5027082;28;20037;-75
2021/11/13 04:16:56;;;;;;;47.28;10.65;;;;;;;2.18;100.00;95429.03;5029684;28;20041;-76
2021/11/13 04:19:22;;;;;;;26.08;10.05;;;;;;;2.16;100.00;95425.88;5031300;28;20114;-77
2021/11/13 04:21:48;;;;;;;31.52;9.13;;;;;;;2.08;100.00;95433.94;5030741;28;20056;-76
2021/11/13 04:24:13;;;;;;;74.05;11.00;;;;;;;2.09;100.00;95432.94;5014030;28;20060;-75
2021/11/13 04:26:39;;;;;;;49.25;9.68;;;;;;;2.14;100.00;95443.47;5031207;28;20576;-76
2021/11/13 04:29:04;;;;;;;55.40;11.00;;;;;;;2.02;100.00;95440.00;5032683;28;20049;-77
2021/11/13 04:31:30;;;;;;;58.92;10.43;;;;;;;2.02;100.00;95445.19;5031896;28;20115;-76
2021/11/13 04:34:00;;;;;;;40.78;10.13;;;;;;;2.03;100.00;95441.59;5030664;28;20492;-76
2021/11/13 04:36:29;;;;;;;66.40;10.60;;;;;;;2.02;100.00;95440.00;5025695;28;20049;-77
2021/11/13 04:38:55;;;;;;;62.88;10.05;;;;;;;2.00;100.00;95452.41;5030827;28;20096;-77
2021/11/13 04:41:21;;;;;;;40.97;11.52;;;;;;;2.04;100.00;95458.75;5032130;28;20411;-77
2021/11/13 04:43:47;;;;;;;36.30;10.23;;;;;;;2.02;100.00;95458.19;5030501;28;20056;-77
2021/11/13 04:46:13;;;;;;;25.13;10.85;;;;;;;2.02;100.00;95455.59;5030857;28;20041;-77
2021/11/13 04:48:38;;;;;;;42.45;10.88;;;;;;;1.94;100.00;95448.06;5032507;28;20045;-77
2021/11/13 04:51:04;;;;;;;58.50;10.88;;;;;;;2.03;100.00;95452.00;5026703;28;20499;-77
2021/11/13 04:53:30;;;;;;;21.67;9.95;;;;;;;2.09;100.00;95456.31;5028537;28;20046;-77
2021/11/13 04:55:55;;;;;;;52.05;10.48;;;;;;;2.02;100.00;95455.59;5031483;28;20529;-76
2021/11/13 04:58:21;;;;;;;94.70;11.38;;;;;;;2.06;100.00;95461.94;5014007;28;20085;-76
2021/11/13 05:00:47;;;;;;;88.45;10.95;;;;;;;1.96;100.00;95456.44;5019783;28;20050;-77
2021/11/13 05:03:12;;;;;;;32.97;9.57;;;;;;;2.00;100.00;95458.41;5017433;28;20099;-77
2021/11/13 05:05:38;;;;;;;102.50;11.43;;;;;;;1.97;100.00;95458.03;5029856;28;20095;-76
2021/11/13 05:08:05;;;;;;;27.90;9.63;;;;;;;1.96;100.00;95457.25;5031625;28;20489;-77
2021/11/13 05:10:30;;;;;;;36.25;9.75;;;;;;;2.08;100.00;95467.69;5031146;28;20084;-76
2021/11/13 05:12:56;;;;;;;56.63;10.32;;;;;;;2.05;100.00;95460.34;5028991;28;20045;-76
2021/11/13 05:15:21;;;;;;;59.72;10.88;;;;;;;2.05;100.00;95460.34;5028003;28;20045;-77
2021/11/13 05:17:49;;;;;;;68.10;10.35;;;;;;;1.86;100.00;95462.13;5030718;28;20053;-76
2021/11/13 05:20:17;;;;;;;44.60;11.07;;;;;;;1.75;100.00;95471.41;5030898;28;20046;-77
2021/11/13 05:22:44;;;;;;;127.57;14.77;;;;;;;1.56;100.00;95473.97;5022136;28;20037;-76
2021/11/13 05:25:13;;;;;;;72.93;11.68;;;;;;;1.66;100.00;95483.09;5026484;28;20069;-77
2021/11/13 05:27:40;;;;;;;72.55;11.32;;;;;;;1.81;100.00;95475.75;5030768;28;20053;-77
2021/11/13 05:30:09;;;;;;;58.42;10.90;;;;;;;1.93;100.00;95473.25;5030007;28;20041;-76
2021/11/13 05:32:34;;;;;;;57.95;11.02;;;;;;;1.90;100.00;95465.91;5030621;28;20602;-76
2021/11/13 05:35:00;;;;;;;60.35;11.48;;;;;;;1.99;100.00;95476.78;5031073;28;20041;-77
2021/11/13 05:37:26;;;;;;;40.50;9.52;;;;;;;2.03;100.00;95477.94;5029785;28;20506;-77
2021/11/13 05:39:51;;;;;;;36.75;10.15;;;;;;;2.01;100.00;95479.94;5031108;28;20045;-76
2021/11/13 05:42:17;;;;;;;39.55;12.15;;;;;;;2.04;100.00;95479.50;5028869;28;20046;-76
2021/11/13 05:44:43;;;;;;;53.80;10.57;;;;;;;2.08;100.00;95491.06;5021761;28;20084;-78
2021/11/13 05:47:09;;;;;;;39.83;9.77;;;;;;;2.02;100.00;95486.72;5028706;28;20049;-76
2021/11/13 05:49:35;;;;;;;57.80;10.25;;;;;;;2.01;100.00;95487.72;5028840;28;20411;-77
2021/11/13 05:52:00;;;;;;;18.08;9.65;;;;;;;1.96;100.00;95487.59;5029498;28;20546;-77
2021/11/13 05:54:26;;;;;;;19.52;9.07;;;;;;;2.01;100.00;95479.94;5028254;28;20119;-77
2021/11/13 05:56:52;;;;;;;39.33;9.85;;;;;;;1.95;100.00;95483.41;5029142;28;20042;-77
2021/11/13 05:59:17;;;;;;;64.03;10.85;;;;;;;1.88;100.00;95484.28;5029727;28;20095;-77
2021/11/13 06:01:43;;;;;;;59.10;10.38;;;;;;;1.95;100.00;95481.59;5020226;28;20045;-77
2021/11/13 06:04:09;;;;;;;53.30;10.43;;;;;;;1.93;100.00;95488.03;5015548;28;20042;-77
2021/11/13 06:06:35;;;;;;;64.50;10.55;;;;;;;1.88;100.00;95486.06;5040619;28;20053;-77
2021/11/13 06:09:01;;;;;;;49.42;10.07;;;;;;;1.82;100.00;95492.91;5013875;28;20045;-77
2021/11/13 06:11:26;;;;;;;33.55;9.30;;;;;;;1.82;100.00;95492.91;5028779;28;20052;-77
2021/11/13 06:13:52;;;;;;;55.20;9.40;;;;;;;1.80;100.00;95494.94;5028710;28;20510;-77
2021/11/13 06:16:18;;;;;;;46.83;9.73;;;;;;;1.77;100.00;95500.56;5028186;28;20095;-76
2021/11/13 06:18:43;;;;;;;30.55;9.57;;;;;;;1.78;100.00;95506.53;5028328;28;20095;-77
2021/11/13 06:21:09;;;;;;;23.20;9.57;;;;;;;1.73;100.00;95494.19;5029450;28;20041;-76
2021/11/13 06:23:37;;;;;;;49.72;10.02;;;;;;;1.71;100.00;95497.00;5026045;28;20051;-76
2021/11/13 06:26:05;;;;;;;53.28;9.90;;;;;;;1.73;100.00;95504.56;5027090;28;20479;-76
2021/11/13 06:28:32;;;;;;;49.90;9.93;;;;;;;1.80;100.00;95494.94;5027531;28;20468;-76
2021/11/13 06:30:58;;;;;;;36.67;9.73;;;;;;;1.79;100.00;95503.72;5013263;28;20526;-77
2021/11/13 06:33:23;;;;;;;63.92;10.13;;;;;;;1.75;100.00;95501.75;5029817;28;20052;-77
2021/11/13 06:35:49;;;;;;;26.85;9.60;;;;;;;1.77;100.00;95510.94;5027876;28;20045;-76
2021/11/13 06:38:15;;;;;;;69.22;10.30;;;;;;;1.74;100.00;95516.53;5029736;28;20045;-76
2021/11/13 06:40:40;;;;;;;30.75;9.20;;;;;;;1.70;100.00;95510.97;5026862;28;20419;-76
2021/11/13 06:43:06;;;;;;;46.45;9.55;;;;;;;1.68;100.00;95517.38;5016434;28;20050;-76
2021/11/13 06:45:33;;;;;;;49.10;10.88;;;;;;;1.68;100.00;95517.38;5028340;28;20063;-77
2021/11/13 06:47:58;;;;;;;42.65;9.65;;;;;;;1.64;100.00;95521.41;5027366;28;20033;-75
2021/11/13 06:50:24;;;;;;;24.48;9.85;;;;;;;1.68;100.00;95523.38;5023764;28;20041;-76
2021/11/13 06:52:50;;;;;;;22.90;9.23;;;;;;;1.74;100.00;95521.72;5026469;28;20765;-77
2021/11/13 06:55:16;;;;;;;39.78;9.25;;;;;;;1.64;100.00;95516.22;5030170;28;20045;-77
2021/11/13 06:57:42;;;;;;;60.55;9.98;;;;;;;1.58;100.00;95517.06;5027209;28;20041;-77
2021/11/13 07:00:12;;;;;;;24.77;9.20;;;;;;;1.63;100.00;95522.44;5026306;28;20046;-75
2021/11/13 07:02:37;;;;;;;36.97;9.45;;;;;;;1.47;100.00;95529.72;5024673;28;20041;-76
2021/11/13 07:05:05;;;;;;;43.30;9.48;;;;;;;1.47;100.00;95532.31;5026729;28;20084;-75
2021/11/13 07:07:33;;;;;;;45.75;9.05;;;;;;;1.41;100.00;95530.56;5026286;28;20049;-76
2021/11/13 07:10:04;;;;;;;25.42;8.60;;;;;;;1.37;100.00;95532.00;5025947;28;20045;-75
2021/11/13 07:12:31;;;;;;;30.35;8.60;;;;;;;1.38;100.00;95531.78;5024993;28;20049;-76
2021/11/13 07:14:57;;;;;;;16.80;7.93;;;;;;;1.33;100.00;95529.00;5023947;28;20507;-76
2021/11/13 07:17:22;;;;;;;17.90;7.65;;;;;;;1.32;100.00;95534.41;5027537;28;20045;-76
2021/11/13 07:19:48;;;;;;;19.50;8.43;;;;;;;1.31;100.00;95543.22;5023804;28;20045;-76
2021/11/13 07:22:15;;;;;;;14.98;7.72;;;;;;;1.35;100.00;95528.81;5019932;28;20049;-76
2021/11/13 07:24:42;;;;;;;15.90;7.68;;;;;;;1.36;100.00;95533.78;5023350;28;20099;-77
2021/11/13 07:27:08;;;;;;;30.30;7.75;;;;;;;1.29;100.00;95529.66;5021922;28;20046;-75
2021/11/13 07:29:42;;;;;;;16.58;7.45;;;;;;;1.33;100.00;95525.63;5025454;28;20037;-76
2021/11/13 07:32:08;;;;;;;17.73;8.43;;;;;;;1.43;100.00;95525.97;5031245;28;20095;-77
2021/11/13 07:34:34;;;;;;;18.20;8.23;;;;;;;1.46;100.00;95520.34;5029692;28;20450;-75
2021/11/13 07:36:59;;;;;;;14.77;8.10;;;;;;;1.46;100.00;95509.97;5028348;28;20064;-76
2021/11/13 07:39:25;;;;;;;18.55;9.07;;;;;;;1.56;100.00;95510.28;5027578;28;20034;-74
2021/11/13 07:41:50;;;;;;;15.38;8.35;;;;;;;1.55;100.00;95508.72;5019757;28;20055;-75
2021/11/13 07:44:16;;;;;;;20.73;8.13;;;;;;;1.62;100.00;95505.25;5026929;28;20053;-77
2021/11/13 07:46:42;;;;;;;22.27;8.23;;;;;;;1.66;100.00;95501.25;5029932;28;20057;-78
2021/11/13 07:49:07;;;;;;;15.57;7.43;;;;;;;1.64;100.00;95503.25;5024363;28;20274;-83
2021/11/13 07:51:33;;;;;;;11.43;6.82;;;;;;;1.55;100.00;95498.34;5030677;28;20041;-77
2021/11/13 07:53:59;;;;;;;19.73;8.52;;;;;;;1.53;100.00;95489.97;5033729;28;20045;-77
2021/11/13 07:56:25;;;;;;;20.25;8.68;;;;;;;1.52;100.00;95493.59;5030920;28;20581;-78
2021/11/13 07:58:50;;;;;;;17.33;7.38;;;;;;;1.59;100.00;95490.13;5035331;28;20042;-78
2021/11/13 08:01:16;;;;;;;15.82;7.65;;;;;;;1.49;100.00;95493.97;5031807;28;20080;-77
2021/11/13 08:03:42;;;;;;;41.95;7.38;;;;;;;1.42;100.00;95488.06;5024608;28;20508;-81
2021/11/13 08:06:07;;;;;;;17.20;7.65;;;;;;;1.39;100.00;95493.66;5029479;28;20064;-77
2021/11/13 08:08:33;;;;;;;13.73;7.10;;;;;;;1.36;100.00;95488.91;5028440;28;20634;-77
2021/11/13 08:11:00;;;;;;;14.68;7.93;;;;;;;1.28;100.00;95489.97;5028956;28;20053;-79
2021/11/13 08:13:27;;;;;;;16.85;7.40;;;;;;;1.32;100.00;95493.75;5028051;28;20048;-76
2021/11/13 08:15:52;;;;;;;14.05;7.30;;;;;;;1.43;100.00;95489.66;5028590;28;20042;-79
2021/11/13 08:18:18;;;;;;;15.30;7.30;;;;;;;1.57;100.00;95485.16;5023911;28;20787;-76
2021/11/13 08:20:45;;;;;;;15.05;7.57;;;;;;;1.64;100.00;95485.06;5029162;28;20128;-77
2021/11/13 08:23:11;;;;;;;13.88;6.85;;;;;;;1.65;100.00;95487.50;5029996;28;20045;-76
2021/11/13 08:25:42;;;;;;;13.52;7.25;;;;;;;1.66;100.00;95493.47;5021455;28;20095;-77
2021/11/13 08:28:09;;;;;;;13.38;7.43;;;;;;;1.47;100.00;95480.44;5029542;28;20457;-77
2021/11/13 08:30:35;;;;;;;11.55;6.38;;;;;;;1.80;100.00;95489.72;5029954;28;20041;-77
2021/11/13 08:33:03;;;;;;;11.13;6.03;;;;;;;1.92;100.00;95476.84;5030260;28;20095;-76
2021/11/13 08:35:29;;;;;;;9.98;5.80;;;;;;;1.90;100.00;95487.44;5030750;28;20450;-77
2021/11/13 08:37:56;;;;;;;12.88;6.90;;;;;;;1.57;100.00;95498.13;5031805;28;20048;-77
2021/11/13 08:40:22;;;;;;;11.07;6.43;;;;;;;1.59;100.00;95513.47;5030421;28;20045;-76
2021/11/13 08:42:47;;;;;;;14.73;7.50;;;;;;;1.62;100.00;95513.81;5028933;28;20554;-76
2021/11/13 08:45:13;;;;;;;10.82;6.80;;;;;;;1.72;100.00;95518.53;5026493;28;20839;-77
2021/11/13 08:47:41;;;;;;;14.43;7.68;;;;;;;1.80;100.00;95531.25;5029660;28;20045;-77
2021/11/13 08:50:11;;;;;;;14.88;7.60;;;;;;;2.01;100.00;95521.47;5028543;28;20445;-78
2021/11/13 08:52:37;;;;;;;13.60;7.25;;;;;;;2.16;100.00;95519.34;5021265;28;20495;-76
2021/11/13 08:55:04;;;;;;;12.48;7.15;;;;;;;2.24;100.00;95521.66;5043392;28;20052;-76
2021/11/13 08:57:29;;;;;;;14.43;7.50;;;;;;;2.36;100.00;95518.34;5026256;28;20041;-76
2021/11/13 08:59:56;;;;;;;14.40;7.80;;;;;;;2.40;100.00;95511.69;5023754;28;20041;-76
2021/11/13 09:02:25;;;;;;;14.90;8.13;;;;;;;2.52;100.00;95501.38;5025478;28;20041;-76
2021/11/13 09:04:52;;;;;;;14.45;8.20;;;;;;;2.72;100.00;95506.31;5042388;28;20041;-76
2021/11/13 09:07:20;;;;;;;14.88;7.60;;;;;;;2.89;100.00;95507.28;5022492;28;20065;-76
2021/11/13 09:09:47;;;;;;;14.73;8.25;;;;;;;3.16;100.00;95506.13;5024534;28;20049;-75
2021/11/13 09:12:22;;;;;;;17.95;8.73;;;;;;;3.29;100.00;95504.13;5042687;28;20104;-76
2021/11/13 09:14:50;;;;;;;14.02;7.78;;;;;;;3.37;100.00;95502.22;5026782;28;20072;-77
2021/11/13 09:17:16;;;;;;;14.30;7.72;;;;;;;3.42;100.00;95500.53;5030009;28;20082;-77
2021/11/13 09:19:41;;;;;;;12.80;7.50;;;;;;;3.54;100.00;95497.16;5027564;28;20465;-76
2021/11/13 09:22:07;;;;;;;16.70;7.82;;;;;;;3.62;100.00;95495.03;5027637;28;20060;-77
2021/11/13 09:24:33;;;;;;;12.57;7.40;;;;;;;3.73;100.00;95495.25;5025838;28;20053;-76
2021/11/13 09:26:58;;;;;;;14.93;8.68;;;;;;;3.68;100.00;95492.53;5030248;28;20052;-77
2021/11/13 09:29:24;;;;;;;15.13;7.72;;;;;;;3.53;100.00;95498.97;5029492;28;20056;-76
2021/11/13 09:31:50;;;;;;;13.88;8.27;;;;;;;3.54;100.00;95492.75;5029433;28;20576;-75
2021/11/13 09:34:18;;;;;;;16.80;8.00;;;;;;;4.07;100.00;95485.06;5028843;28;20068;-76
2021/11/13 09:36:44;;;;;;;14.60;7.80;;;;;;;4.33;100.00;95487.16;5029763;28;20041;-76
2021/11/13 09:39:10;;;;;;;12.85;7.47;;;;;;;4.50;100.00;95479.41;5033371;28;20045;-75
2021/11/13 09:41:36;;;;;;;13.10;7.38;;;;;;;4.53;100.00;95488.59;5054923;28;20051;-74
2021/11/13 09:44:03;;;;;;;12.20;7.40;;;;;;;4.57;100.00;95489.72;5053886;28;20041;-74
2021/11/13 09:46:29;;;;;;;15.60;8.18;;;;;;;4.16;100.00;95486.28;5053756;28;20061;-74
2021/11/13 09:48:57;;;;;;;13.23;8.25;;;;;;;4.01;100.00;95491.16;5046478;28;20032;-74
2021/11/13 09:51:24;;;;;;;13.73;8.18;;;;;;;4.02;100.00;95482.34;5053831;28;20026;-74
2021/11/13 09:53:50;;;;;;;17.63;8.40;;;;;;;4.06;100.00;95493.88;5047884;28;20029;-74
2021/11/13 09:56:17;;;;;;;16.40;8.35;;;;;;;4.33;100.00;95487.16;5054625;28;20029;-74
2021/11/13 09:58:43;;;;;;;16.60;8.73;;;;;;;4.58;100.00;95493.09;5053125;28;20030;-74
2021/11/13 10:01:10;;;;;;;16.02;8.10;;;;;;;4.61;100.00;95495.25;5054998;28;20064;-74
2021/11/13 10:03:37;;;;;;;13.52;8.48;;;;;;;4.50;100.00;95491.66;5054545;28;20029;-75
2021/11/13 10:06:07;;;;;;;15.00;8.27;;;;;;;4.59;100.00;95487.66;5046610;28;20030;-76
2021/11/13 10:08:33;;;;;;;14.60;8.80;;;;;;;4.45;100.00;95486.34;5023831;28;20099;-76
2021/11/13 10:11:09;;;;;;;14.48;8.30;;;;;;;4.56;100.00;95489.94;5029173;28;20050;-75
2021/11/13 10:14:00;;;;;;;14.73;8.93;;;;;;;4.50;100.00;95491.66;5026594;28;20140;-77
2021/11/13 10:16:34;;;;;;;16.52;9.52;;;;;;;4.67;100.00;95495.13;5028307;28;20060;-77
2021/11/13 10:19:14;;;;;;;15.35;8.63;;;;;;;4.91;100.00;95495.00;5028875;28;20800;-76
2021/11/13 10:21:42;;;;;;;13.18;7.68;;;;;;;4.95;100.00;95501.34;5027354;28;20037;-76
2021/11/13 10:24:23;;;;;;;12.63;7.82;;;;;;;4.86;100.00;95493.09;5028454;28;20045;-77
2021/11/13 10:26:52;;;;;;;13.32;8.10;;;;;;;4.83;100.00;95498.00;5024812;28;20105;-75
2021/11/13 10:29:24;;;;;;;14.07;8.13;;;;;;;4.82;100.00;95491.22;5027080;28;20069;-75
2021/11/13 10:31:56;;;;;;;12.50;7.45;;;;;;;5.03;100.00;95490.53;5023328;28;20141;-77
2021/11/13 10:34:26;;;;;;;12.95;7.72;;;;;;;4.77;100.00;95483.28;5029915;28;20048;-77
2021/11/13 10:37:00;;;;;;;19.98;8.43;;;;;;;4.52;100.00;95481.78;5032391;28;20044;-77
2021/11/13 10:39:30;;;;;;;17.17;9.85;;;;;;;4.45;100.00;95481.13;5024254;28;20041;-79
2021/11/13 10:41:59;;;;;;;17.42;10.05;;;;;;;4.39;100.00;95477.63;5028894;28;20083;-77
2021/11/13 10:44:31;;;;;;;17.85;9.18;;;;;;;4.51;100.00;95488.00;5029881;28;20534;-79
2021/11/13 10:46:58;;;;;;;18.27;9.20;;;;;;;4.87;100.00;95488.69;5028830;28;20041;-79
2021/11/13 10:49:25;;;;;;;15.98;9.15;;;;;;;5.00;100.00;95477.97;5032128;28;20838;-78
2021/11/13 10:51:55;;;;;;;14.85;8.63;;;;;;;5.16;100.00;95483.47;5032795;28;20050;-76
2021/11/13 10:54:22;;;;;;;12.93;8.27;;;;;;;5.33;100.00;95481.66;5031444;28;20092;-77
2021/11/13 10:56:54;;;;;;;16.92;8.40;;;;;;;5.29;100.00;95480.53;5018904;28;20419;-77
2021/11/13 10:59:25;;;;;;;13.88;7.97;;;;;;;5.43;100.00;95485.44;5043885;28;20041;-76
2021/11/13 11:01:51;;;;;;;17.85;9.20;;;;;;;5.29;100.00;95475.31;5029278;28;20415;-82
2021/11/13 11:04:17;;;;;;;14.88;8.35;;;;;;;5.40;100.00;95485.91;5027888;28;20066;-78
2021/11/13 11:06:47;;;;;;;14.68;8.65;;;;;;;5.60;100.00;95486.22;5030925;28;20061;-77
2021/11/13 11:09:27;;;;;;;14.35;8.10;;;;;;;5.70;100.00;95481.19;5025783;28;20041;-77
2021/11/13 11:11:56;;;;;;;15.60;9.20;;;;;;;5.46;100.00;95479.75;5032396;28;20529;-77
2021/11/13 11:14:24;;;;;;;15.15;9.30;;;;;;;5.34;100.00;95479.81;5031021;28;20049;-77
2021/11/13 11:16:53;;;;;;;15.23;8.95;;;;;;;5.43;100.00;95469.78;5013298;28;20539;-77
2021/11/13 11:19:27;;;;;;;17.77;10.32;;;;;;;5.28;100.00;95468.50;5013408;28;20074;-77
2021/11/13 11:21:59;;;;;;;17.65;10.45;;;;;;;5.43;100.00;95472.41;5013116;28;20042;-77